sensor_id;sensor_type;location;lat;lon;timestamp;pressure;altitude;pressure_sealevel;temperature;humidity
10510;BME280;5303;53.266;10.410;2023-07-20T00:00:22;100968.72;;;15.17;100.00
10510;BME280;5303;53.266;10.410;2023-07-20T00:02:50;100963.41;;;15.17;100.00
10510;BME280;5303;53.266;10.410;2023-07-20T00:05:15;100963.41;;;15.17;100.00
10510;BME280;5303;53.266;10.410;2023-07-20T00:07:43;100965.22;;;15.15;100.00
10510;BME280;5303;53.266;10.410;2023-07-20T00:10:09;100968.00;;;15.09;100.00
10510;BME280;5303;53.266;10.410;2023-07-20T00:12:34;100963.66;;;15.05;100.00
10510;BME280;5303;53.266;10.410;2023-07-20T00:15:00;100957.41;;;15.07;100.00
10510;BME280;5303;53.266;10.410;2023-07-20T00:17:25;100964.56;;;15.04;100.00
10510;BME280;5303;53.266;10.410;2023-07-20T00:19:50;100960.16;;;15.03;100.00
10510;BME280;5303;53.266;10.410;2023-07-20T00:22:15;100963.75;;;14.98;100.00
10510;BME280;5303;53.266;10.410;2023-07-20T00:24:41;100957.50;;;15.03;100.00
10510;BME280;5303;53.266;10.410;2023-07-20T00:27:06;100961.94;;;15.01;100.00
10510;BME280;5303;53.266;10.410;2023-07-20T00:29:31;100963.91;;;14.92;100.00
10510;BME280;5303;53.266;10.410;2023-07-20T00:31:58;100957.69;;;14.93;100.00
10510;BME280;5303;53.266;10.410;2023-07-20T00:34:23;100963.84;;;14.95;100.00
10510;BME280;5303;53.266;10.410;2023-07-20T00:36:48;100961.25;;;14.92;100.00
10510;BME280;5303;53.266;10.410;2023-07-20T00:39:14;100964.78;;;14.93;100.00
10510;BME280;5303;53.266;10.410;2023-07-20T00:41:39;100965.78;;;14.86;100.00
10510;BME280;5303;53.266;10.410;2023-07-20T00:44:05;100961.44;;;14.82;100.00
10510;BME280;5303;53.266;10.410;2023-07-20T00:46:31;100957.81;;;14.86;100.00
10510;BME280;5303;53.266;10.410;2023-07-20T00:48:58;100956.97;;;14.84;100.00
10510;BME280;5303;53.266;10.410;2023-07-20T00:51:25;100956.09;;;14.83;100.00
10510;BME280;5303;53.266;10.410;2023-07-20T00:53:50;100962.41;;;14.76;100.00
10510;BME280;5303;53.266;10.410;2023-07-20T00:56:16;100957.13;;;14.75;100.00
10510;BME280;5303;53.266;10.410;2023-07-20T00:58:41;100960.50;;;14.84;100.00
10510;BME280;5303;53.266;10.410;2023-07-20T01:01:06;100961.50;;;14.77;100.00
10510;BME280;5303;53.266;10.410;2023-07-20T01:03:32;100954.38;;;14.79;100.00
10510;BME280;5303;53.266;10.410;2023-07-20T01:06:01;100958.78;;;14.82;100.00
10510;BME280;5303;53.266;10.410;2023-07-20T01:12:18;100954.34;;;14.82;100.00
10510;BME280;5303;53.266;10.410;2023-07-20T01:14:23;100956.13;;;14.80;100.00
10510;BME280;5303;53.266;10.410;2023-07-20T01:16:50;100954.28;;;14.85;100.00
10510;BME280;5303;53.266;10.410;2023-07-20T01:19:17;100946.31;;;14.85;100.00
10510;BME280;5303;53.266;10.410;2023-07-20T01:25:03;100954.19;;;14.90;100.00
10510;BME280;5303;53.266;10.410;2023-07-20T01:30:34;100953.19;;;14.95;100.00
10510;BME280;5303;53.266;10.410;2023-07-20T01:33:06;100947.75;;;15.02;100.00
10510;BME280;5303;53.266;10.410;2023-07-20T01:35:32;100956.63;;;15.01;100.00
10510;BME280;5303;53.266;10.410;2023-07-20T01:37:58;100951.28;;;15.04;100.00
10510;BME280;5303;53.266;10.410;2023-07-20T01:40:24;100954.69;;;15.10;100.00
10510;BME280;5303;53.266;10.410;2023-07-20T01:42:51;100947.69;;;15.06;100.00
10510;BME280;5303;53.266;10.410;2023-07-20T01:45:17;100947.72;;;15.05;100.00
10510;BME280;5303;53.266;10.410;2023-07-20T01:47:43;100947.75;;;15.02;100.00
10510;BME280;5303;53.266;10.410;2023-07-20T01:50:08;100952.06;;;15.09;100.00
10510;BME280;5303;53.266;10.410;2023-07-20T01:52:34;100948.38;;;15.16;100.00
10510;BME280;5303;53.266;10.410;2023-07-20T01:54:59;100952.97;;;15.08;100.00
10510;BME280;5303;53.266;10.410;2023-07-20T01:57:24;100943.09;;;15.14;100.00
10510;BME280;5303;53.266;10.410;2023-07-20T01:59:50;100940.47;;;15.13;100.00
10510;BME280;5303;53.266;10.410;2023-07-20T02:02:15;100944.03;;;15.10;100.00
10510;BME280;5303;53.266;10.410;2023-07-20T02:04:40;100943.13;;;15.13;100.00
10510;BME280;5303;53.266;10.410;2023-07-20T02:07:05;100938.69;;;15.12;100.00
10510;BME280;5303;53.266;10.410;2023-07-20T02:09:31;100935.09;;;15.16;100.00
10510;BME280;5303;53.266;10.410;2023-07-20T02:11:56;100933.28;;;15.18;100.00
10510;BME280;5303;53.266;10.410;2023-07-20T02:14:21;100935.81;;;15.24;100.00
10510;BME280;5303;53.266;10.410;2023-07-20T02:16:47;100934.94;;;15.23;100.00
10510;BME280;5303;53.266;10.410;2023-07-20T02:19:18;100945.53;;;15.25;100.00
10510;BME280;5303;53.266;10.410;2023-07-20T02:21:43;100941.06;;;15.27;100.00
10510;BME280;5303;53.266;10.410;2023-07-20T02:24:08;100939.31;;;15.26;100.00
10510;BME280;5303;53.266;10.410;2023-07-20T02:26:34;100942.00;;;15.24;100.00
10510;BME280;5303;53.266;10.410;2023-07-20T02:28:59;100939.22;;;15.31;100.00
10510;BME280;5303;53.266;10.410;2023-07-20T02:31:24;100938.28;;;15.33;100.00
10510;BME280;5303;53.266;10.410;2023-07-20T02:33:49;100934.72;;;15.34;100.00
10510;BME280;5303;53.266;10.410;2023-07-20T02:36:15;100938.28;;;15.33;100.00
10510;BME280;5303;53.266;10.410;2023-07-20T02:38:42;100947.16;;;15.32;100.00
10510;BME280;5303;53.266;10.410;2023-07-20T02:41:07;100939.31;;;15.26;100.00
10510;BME280;5303;53.266;10.410;2023-07-20T02:43:32;100949.94;;;15.26;100.00
10510;BME280;5303;53.266;10.410;2023-07-20T02:45:58;100942.81;;;15.28;100.00
10510;BME280;5303;53.266;10.410;2023-07-20T02:48:23;100951.59;;;15.33;100.00
10510;BME280;5303;53.266;10.410;2023-07-20T02:50:48;100942.94;;;15.22;100.00
10510;BME280;5303;53.266;10.410;2023-07-20T02:53:13;100953.72;;;15.14;100.00
10510;BME280;5303;53.266;10.410;2023-07-20T02:55:39;100952.91;;;15.11;100.00
10510;BME280;5303;53.266;10.410;2023-07-20T02:58:04;100953.78;;;15.11;100.00
10510;BME280;5303;53.266;10.410;2023-07-20T03:00:29;100948.41;;;15.14;100.00
10510;BME280;5303;53.266;10.410;2023-07-20T03:02:54;100940.38;;;15.17;100.00
10510;BME280;5303;53.266;10.410;2023-07-20T03:05:21;100947.56;;;15.12;100.00
10510;BME280;5303;53.266;10.410;2023-07-20T03:07:48;100952.91;;;15.11;100.00
10510;BME280;5303;53.266;10.410;2023-07-20T03:10:14;100961.78;;;15.10;100.00
10510;BME280;5303;53.266;10.410;2023-07-20T03:12:39;100966.22;;;15.09;100.00
10510;BME280;5303;53.266;10.410;2023-07-20T03:15:05;100968.81;;;15.14;100.00
10510;BME280;5303;53.266;10.410;2023-07-20T03:17:30;100964.41;;;15.13;100.00
10510;BME280;5303;53.266;10.410;2023-07-20T03:19:55;100976.09;;;15.03;100.00
10510;BME280;5303;53.266;10.410;2023-07-20T03:22:21;100965.41;;;15.06;100.00
10510;BME280;5303;53.266;10.410;2023-07-20T03:24:47;100959.50;;;14.90;100.00
10510;BME280;5303;53.266;10.410;2023-07-20T03:27:12;100965.84;;;14.83;100.00
10510;BME280;5303;53.266;10.410;2023-07-20T03:29:37;100964.00;;;14.86;100.00
10510;BME280;5303;53.266;10.410;2023-07-20T03:32:03;100969.31;;;14.86;100.00
10510;BME280;5303;53.266;10.410;2023-07-20T03:34:28;100965.81;;;14.84;100.00
10510;BME280;5303;53.266;10.410;2023-07-20T03:36:54;100960.50;;;14.84;100.00
10510;BME280;5303;53.266;10.410;2023-07-20T03:39:19;100960.66;;;14.75;100.00
10510;BME280;5303;53.266;10.410;2023-07-20T03:41:44;100967.72;;;14.76;100.00
10510;BME280;5303;53.266;10.410;2023-07-20T03:44:10;100958.69;;;14.86;100.00
10510;BME280;5303;53.266;10.410;2023-07-20T03:46:35;100962.31;;;14.81;100.00
10510;BME280;5303;53.266;10.410;2023-07-20T03:49:00;100959.69;;;14.79;100.00
10510;BME280;5303;53.266;10.410;2023-07-20T03:51:26;100969.53;;;14.74;100.00
10510;BME280;5303;53.266;10.410;2023-07-20T03:53:51;100973.13;;;14.70;100.00
10510;BME280;5303;53.266;10.410;2023-07-20T03:56:17;100978.34;;;14.76;100.00
10510;BME280;5303;53.266;10.410;2023-07-20T03:58:42;100983.72;;;14.73;100.00
10510;BME280;5303;53.266;10.410;2023-07-20T04:01:07;100981.00;;;14.76;100.00
10510;BME280;5303;53.266;10.410;2023-07-20T04:03:34;100981.63;;;14.90;100.00
10510;BME280;5303;53.266;10.410;2023-07-20T04:06:00;100979.91;;;14.88;100.00
10510;BME280;5303;53.266;10.410;2023-07-20T04:08:26;100990.59;;;14.85;100.00
10510;BME280;5303;53.266;10.410;2023-07-20T04:10:51;100983.41;;;14.90;100.00
10510;BME280;5303;53.266;10.410;2023-07-20T04:13:16;100983.44;;;14.88;100.00
10510;BME280;5303;53.266;10.410;2023-07-20T04:15:42;100980.00;;;14.83;100.00
10510;BME280;5303;53.266;10.410;2023-07-20T04:18:07;100987.94;;;14.85;100.00
10510;BME280;5303;53.266;10.410;2023-07-20T04:20:33;100989.69;;;14.86;100.00
10510;BME280;5303;53.266;10.410;2023-07-20T04:22:58;100985.25;;;14.86;100.00
10510;BME280;5303;53.266;10.410;2023-07-20T04:25:25;100990.63;;;14.83;100.00
10510;BME280;5303;53.266;10.410;2023-07-20T04:27:50;100993.19;;;14.88;100.00
10510;BME280;5303;53.266;10.410;2023-07-20T04:30:17;100996.56;;;14.97;100.00
10510;BME280;5303;53.266;10.410;2023-07-20T04:32:45;101007.22;;;14.96;100.00
10510;BME280;5303;53.266;10.410;2023-07-20T04:35:17;101000.00;;;15.03;100.00
10510;BME280;5303;53.266;10.410;2023-07-20T04:37:42;100996.47;;;15.02;100.00
10510;BME280;5303;53.266;10.410;2023-07-20T04:40:15;100992.00;;;15.04;100.00
10510;BME280;5303;53.266;10.410;2023-07-20T04:42:40;100992.75;;;15.12;100.00
10510;BME280;5303;53.266;10.410;2023-07-20T04:45:06;100989.00;;;15.22;100.00
10510;BME280;5303;53.266;10.410;2023-07-20T04:47:31;100995.06;;;15.29;100.00
10510;BME280;5303;53.266;10.410;2023-07-20T04:49:57;101000.28;;;15.35;100.00
10510;BME280;5303;53.266;10.410;2023-07-20T04:52:22;100995.91;;;15.31;100.00
10510;BME280;5303;53.266;10.410;2023-07-20T04:54:48;100995.00;;;15.32;100.00
10510;BME280;5303;53.266;10.410;2023-07-20T04:57:13;100996.63;;;15.39;100.00
10510;BME280;5303;53.266;10.410;2023-07-20T04:59:38;100996.38;;;15.53;100.00
10510;BME280;5303;53.266;10.410;2023-07-20T05:02:04;100990.16;;;15.54;100.00
10510;BME280;5303;53.266;10.410;2023-07-20T05:04:29;100994.63;;;15.50;100.00
10510;BME280;5303;53.266;10.410;2023-07-20T05:06:54;101002.50;;;15.56;100.00
10510;BME280;5303;53.266;10.410;2023-07-20T05:09:20;101005.00;;;15.66;100.00
10510;BME280;5303;53.266;10.410;2023-07-20T05:11:45;101003.09;;;15.71;100.00
10510;BME280;5303;53.266;10.410;2023-07-20T05:14:12;101004.06;;;15.68;100.00
10510;BME280;5303;53.266;10.410;2023-07-20T05:16:38;101004.00;;;15.70;100.00
10510;BME280;5303;53.266;10.410;2023-07-20T05:19:03;100995.97;;;15.74;100.00
10510;BME280;5303;53.266;10.410;2023-07-20T05:21:28;100999.31;;;15.84;100.00
10510;BME280;5303;53.266;10.410;2023-07-20T05:23:54;101000.91;;;15.91;100.00
10510;BME280;5303;53.266;10.410;2023-07-20T05:26:19;101006.00;;;16.00;100.00
10510;BME280;5303;53.266;10.410;2023-07-20T05:28:44;100997.00;;;16.07;100.00
10510;BME280;5303;53.266;10.410;2023-07-20T05:31:09;100999.66;;;16.07;100.00
10510;BME280;5303;53.266;10.410;2023-07-20T05:33:35;100995.09;;;16.12;100.00
10510;BME280;5303;53.266;10.410;2023-07-20T05:36:00;100991.59;;;16.10;100.00
10510;BME280;5303;53.266;10.410;2023-07-20T05:38:25;100997.06;;;16.03;100.00
10510;BME280;5303;53.266;10.410;2023-07-20T05:40:51;100997.88;;;16.08;100.00
10510;BME280;5303;53.266;10.410;2023-07-20T05:43:16;100996.81;;;16.15;100.00
10510;BME280;5303;53.266;10.410;2023-07-20T05:45:42;101002.09;;;16.17;100.00
10510;BME280;5303;53.266;10.410;2023-07-20T05:48:08;101000.41;;;16.12;100.00
10510;BME280;5303;53.266;10.410;2023-07-20T05:50:36;101001.06;;;16.22;100.00
10510;BME280;5303;53.266;10.410;2023-07-20T05:53:01;101000.78;;;16.34;100.00
10510;BME280;5303;53.266;10.410;2023-07-20T05:55:27;101011.22;;;16.45;100.00
10510;BME280;5303;53.266;10.410;2023-07-20T05:57:52;101005.84;;;16.47;100.00
10510;BME280;5303;53.266;10.410;2023-07-20T06:00:20;101000.50;;;16.47;100.00
10510;BME280;5303;53.266;10.410;2023-07-20T06:02:51;101001.94;;;16.60;100.00
10510;BME280;5303;53.266;10.410;2023-07-20T06:05:18;101007.22;;;16.61;100.00
10510;BME280;5303;53.266;10.410;2023-07-20T06:07:44;101009.72;;;16.70;100.00
10510;BME280;5303;53.266;10.410;2023-07-20T06:10:09;101001.75;;;16.69;100.00
10510;BME280;5303;53.266;10.410;2023-07-20T06:12:34;100999.88;;;16.73;100.00
10510;BME280;5303;53.266;10.410;2023-07-20T06:15:04;101000.44;;;16.85;100.00
10510;BME280;5303;53.266;10.410;2023-07-20T06:17:29;100995.00;;;16.90;100.00
10510;BME280;5303;53.266;10.410;2023-07-20T06:19:55;101004.69;;;16.92;100.00
10510;BME280;5303;53.266;10.410;2023-07-20T06:22:20;101016.47;;;16.84;100.00
10510;BME280;5303;53.266;10.410;2023-07-20T06:24:45;101004.78;;;16.89;100.00
10510;BME280;5303;53.266;10.410;2023-07-20T06:27:11;101009.38;;;16.83;100.00
10510;BME280;5303;53.266;10.410;2023-07-20T06:29:37;101002.84;;;16.94;100.00
10510;BME280;5303;53.266;10.410;2023-07-20T06:32:02;101011.44;;;17.07;100.00
10510;BME280;5303;53.266;10.410;2023-07-20T06:34:28;101010.31;;;17.14;100.00
10510;BME280;5303;53.266;10.410;2023-07-20T06:36:55;101014.53;;;17.23;100.00
10510;BME280;5303;53.266;10.410;2023-07-20T06:39:20;101014.44;;;17.26;100.00
10510;BME280;5303;53.266;10.410;2023-07-20T06:41:47;101015.50;;;17.20;100.00
10510;BME280;5303;53.266;10.410;2023-07-20T06:44:12;101016.50;;;17.16;100.00
10510;BME280;5303;53.266;10.410;2023-07-20T06:46:38;101013.63;;;17.24;100.00
10510;BME280;5303;53.266;10.410;2023-07-20T06:49:06;101025.69;;;17.39;100.00
10510;BME280;5303;53.266;10.410;2023-07-20T06:51:32;101011.66;;;17.31;100.00
10510;BME280;5303;53.266;10.410;2023-07-20T06:53:57;101016.34;;;17.22;100.00
10510;BME280;5303;53.266;10.410;2023-07-20T06:56:23;101021.97;;;17.12;100.00
10510;BME280;5303;53.266;10.410;2023-07-20T06:58:48;101023.47;;;17.22;100.00
10510;BME280;5303;53.266;10.410;2023-07-20T07:01:13;101018.75;;;17.32;100.00
10510;BME280;5303;53.266;10.410;2023-07-20T07:03:40;101020.94;;;17.17;100.00
10510;BME280;5303;53.266;10.410;2023-07-20T07:06:05;101021.56;;;17.27;100.00
10510;BME280;5303;53.266;10.410;2023-07-20T07:08:30;101026.59;;;17.38;100.00
10510;BME280;5303;53.266;10.410;2023-07-20T07:10:56;101022.00;;;17.43;100.00
10510;BME280;5303;53.266;10.410;2023-07-20T07:13:21;101021.47;;;17.61;100.00
10510;BME280;5303;53.266;10.410;2023-07-20T07:15:46;101020.31;;;17.71;100.00
10510;BME280;5303;53.266;10.410;2023-07-20T07:18:12;101018.75;;;17.63;100.00
10510;BME280;5303;53.266;10.410;2023-07-20T07:20:37;101020.38;;;17.70;100.00
10510;BME280;5303;53.266;10.410;2023-07-20T07:23:02;101017.47;;;17.77;100.00
10510;BME280;5303;53.266;10.410;2023-07-20T07:25:28;101024.56;;;17.78;100.00
10510;BME280;5303;53.266;10.410;2023-07-20T07:27:53;101022.47;;;17.90;100.00
10510;BME280;5303;53.266;10.410;2023-07-20T07:30:20;101010.91;;;17.89;100.00
10510;BME280;5303;53.266;10.410;2023-07-20T07:32:46;101025.19;;;17.87;100.00
10510;BME280;5303;53.266;10.410;2023-07-20T07:35:11;101018.38;;;17.78;100.00
10510;BME280;5303;53.266;10.410;2023-07-20T07:37:37;101026.50;;;18.03;100.00
10510;BME280;5303;53.266;10.410;2023-07-20T07:40:03;101026.94;;;18.17;100.00
10510;BME280;5303;53.266;10.410;2023-07-20T07:42:29;101025.84;;;18.24;100.00
10510;BME280;5303;53.266;10.410;2023-07-20T07:44:54;101026.41;;;18.34;100.00
10510;BME280;5303;53.266;10.410;2023-07-20T07:47:20;101029.84;;;18.37;100.00
10510;BME280;5303;53.266;10.410;2023-07-20T07:49:45;101034.47;;;18.32;100.00
10510;BME280;5303;53.266;10.410;2023-07-20T07:52:10;101032.53;;;18.37;100.00
10510;BME280;5303;53.266;10.410;2023-07-20T07:54:36;101027.63;;;18.52;100.00
10510;BME280;5303;53.266;10.410;2023-07-20T07:57:01;101034.50;;;18.59;93.96
10510;BME280;5303;53.266;10.410;2023-07-20T07:59:26;101038.09;;;18.58;92.44
10510;BME280;5303;53.266;10.410;2023-07-20T08:01:52;101029.31;;;18.54;91.74
10510;BME280;5303;53.266;10.410;2023-07-20T08:04:17;101036.97;;;18.66;89.33
10510;BME280;5303;53.266;10.410;2023-07-20T08:06:43;101030.88;;;18.61;87.73
10510;BME280;5303;53.266;10.410;2023-07-20T08:09:08;101026.41;;;18.62;88.13
10510;BME280;5303;53.266;10.410;2023-07-20T08:11:33;101030.09;;;18.58;85.70
10510;BME280;5303;53.266;10.410;2023-07-20T08:14:02;101028.34;;;18.57;85.70
10510;BME280;5303;53.266;10.410;2023-07-20T08:16:27;101032.56;;;18.65;84.01
10510;BME280;5303;53.266;10.410;2023-07-20T08:18:53;101029.00;;;18.65;80.95
10510;BME280;5303;53.266;10.410;2023-07-20T08:21:18;101027.88;;;18.72;80.02
10510;BME280;5303;53.266;10.410;2023-07-20T08:23:43;101028.84;;;18.69;82.61
10510;BME280;5303;53.266;10.410;2023-07-20T08:26:09;101033.88;;;18.79;85.37
10510;BME280;5303;53.266;10.410;2023-07-20T08:28:34;101034.16;;;18.71;83.72
10510;BME280;5303;53.266;10.410;2023-07-20T08:31:00;101037.75;;;18.70;84.20
10510;BME280;5303;53.266;10.410;2023-07-20T08:33:25;101033.13;;;18.75;84.23
10510;BME280;5303;53.266;10.410;2023-07-20T08:35:51;101040.09;;;18.79;83.28
10510;BME280;5303;53.266;10.410;2023-07-20T08:38:16;101040.97;;;18.80;83.17
10510;BME280;5303;53.266;10.410;2023-07-20T08:40:44;101044.63;;;18.77;81.06
10510;BME280;5303;53.266;10.410;2023-07-20T08:43:11;101037.34;;;18.82;79.88
10510;BME280;5303;53.266;10.410;2023-07-20T08:45:39;101044.22;;;18.89;76.24
10510;BME280;5303;53.266;10.410;2023-07-20T08:48:06;101045.19;;;18.87;69.21
10510;BME280;5303;53.266;10.410;2023-07-20T08:50:31;101036.94;;;18.94;68.47
10510;BME280;5303;53.266;10.410;2023-07-20T08:52:58;101037.84;;;18.93;67.77
10510;BME280;5303;53.266;10.410;2023-07-20T08:55:24;101034.19;;;19.22;67.84
10510;BME280;5303;53.266;10.410;2023-07-20T08:57:54;101040.78;;;19.37;65.83
10510;BME280;5303;53.266;10.410;2023-07-20T09:00:20;101047.66;;;19.44;62.83
10510;BME280;5303;53.266;10.410;2023-07-20T09:02:49;101041.53;;;19.41;56.30
10510;BME280;5303;53.266;10.410;2023-07-20T09:05:15;101047.78;;;19.41;56.28
10510;BME280;5303;53.266;10.410;2023-07-20T09:07:40;101041.50;;;19.42;57.01
10510;BME280;5303;53.266;10.410;2023-07-20T09:10:06;101036.63;;;19.53;59.31
10510;BME280;5303;53.266;10.410;2023-07-20T09:12:36;101041.81;;;19.58;59.00
10510;BME280;5303;53.266;10.410;2023-07-20T09:15:02;101032.72;;;19.64;62.21
10510;BME280;5303;53.266;10.410;2023-07-20T09:17:27;101039.56;;;19.71;65.04
10510;BME280;5303;53.266;10.410;2023-07-20T09:19:53;101036.19;;;19.66;64.70
10510;BME280;5303;53.266;10.410;2023-07-20T09:22:19;101037.13;;;19.65;66.35
10510;BME280;5303;53.266;10.410;2023-07-20T09:24:44;101034.22;;;19.71;63.51
10510;BME280;5303;53.266;10.410;2023-07-20T09:27:10;101035.09;;;19.71;62.96
10510;BME280;5303;53.266;10.410;2023-07-20T09:29:47;101038.19;;;19.84;61.87
10510;BME280;5303;53.266;10.410;2023-07-20T09:32:18;101038.75;;;19.92;58.12
10510;BME280;5303;53.266;10.410;2023-07-20T09:34:44;101033.81;;;20.05;58.46
10510;BME280;5303;53.266;10.410;2023-07-20T09:37:10;101042.03;;;20.00;56.86
10510;BME280;5303;53.266;10.410;2023-07-20T09:39:43;101036.66;;;20.00;57.78
10510;BME280;5303;53.266;10.410;2023-07-20T09:42:11;101045.63;;;19.99;57.24
10510;BME280;5303;53.266;10.410;2023-07-20T09:44:36;101039.00;;;19.86;57.44
10510;BME280;5303;53.266;10.410;2023-07-20T09:47:03;101038.19;;;20.07;59.77
10510;BME280;5303;53.266;10.410;2023-07-20T09:49:28;101036.84;;;20.41;60.40
10510;BME280;5303;53.266;10.410;2023-07-20T09:51:55;101028.34;;;20.53;55.19
10510;BME280;5303;53.266;10.410;2023-07-20T09:54:22;101047.34;;;20.47;55.28
10510;BME280;5303;53.266;10.410;2023-07-20T09:56:48;101052.91;;;20.41;56.61
10510;BME280;5303;53.266;10.410;2023-07-20T09:59:16;101068.44;;;20.09;68.89
10510;BME280;5303;53.266;10.410;2023-07-20T10:01:42;101076.63;;;19.07;85.20
10510;BME280;5303;53.266;10.410;2023-07-20T10:04:09;101076.25;;;18.63;92.30
10510;BME280;5303;53.266;10.410;2023-07-20T10:06:39;101079.69;;;18.38;98.84
10510;BME280;5303;53.266;10.410;2023-07-20T10:09:07;101085.03;;;18.38;100.00
10510;BME280;5303;53.266;10.410;2023-07-20T10:11:36;101084.41;;;18.01;100.00
10510;BME280;5303;53.266;10.410;2023-07-20T10:14:04;101068.81;;;17.85;100.00
10510;BME280;5303;53.266;10.410;2023-07-20T10:16:36;101070.94;;;17.74;100.00
10510;BME280;5303;53.266;10.410;2023-07-20T10:19:11;101072.69;;;17.75;100.00
10510;BME280;5303;53.266;10.410;2023-07-20T10:21:42;101069.75;;;17.84;100.00
10510;BME280;5303;53.266;10.410;2023-07-20T10:24:07;101072.59;;;17.78;100.00
10510;BME280;5303;53.266;10.410;2023-07-20T10:26:34;101068.75;;;17.89;100.00
10510;BME280;5303;53.266;10.410;2023-07-20T10:29:00;101060.69;;;17.90;100.00
10510;BME280;5303;53.266;10.410;2023-07-20T10:31:27;101067.41;;;18.03;100.00
10510;BME280;5303;53.266;10.410;2023-07-20T10:33:54;101056.41;;;18.14;100.00
10510;BME280;5303;53.266;10.410;2023-07-20T10:36:25;101060.44;;;18.27;100.00
10510;BME280;5303;53.266;10.410;2023-07-20T10:38:54;101054.00;;;18.34;98.51
10510;BME280;5303;53.266;10.410;2023-07-20T10:41:21;101049.63;;;18.60;84.14
10510;BME280;5303;53.266;10.410;2023-07-20T10:43:48;101048.91;;;18.83;78.36
10510;BME280;5303;53.266;10.410;2023-07-20T10:46:14;101046.50;;;19.02;73.82
10510;BME280;5303;53.266;10.410;2023-07-20T10:48:58;101046.53;;;19.51;72.95
10510;BME280;5303;53.266;10.410;2023-07-20T10:51:24;101032.47;;;19.45;69.01
10510;BME280;5303;53.266;10.410;2023-07-20T10:53:49;101034.53;;;19.62;70.31
10510;BME280;5303;53.266;10.410;2023-07-20T10:56:19;101029.91;;;19.67;70.39
10510;BME280;5303;53.266;10.410;2023-07-20T10:58:45;101036.41;;;19.60;70.80
10510;BME280;5303;53.266;10.410;2023-07-20T11:01:16;101059.88;;;19.02;84.52
10510;BME280;5303;53.266;10.410;2023-07-20T11:03:42;101058.13;;;18.45;98.87
10510;BME280;5303;53.266;10.410;2023-07-20T11:08:48;101059.56;;;18.27;100.00
10510;BME280;5303;53.266;10.410;2023-07-20T11:11:25;101058.59;;;17.70;100.00
10510;BME280;5303;53.266;10.410;2023-07-20T11:13:55;101054.91;;;17.74;100.00
10510;BME280;5303;53.266;10.410;2023-07-20T11:16:52;101051.22;;;17.80;100.00
10510;BME280;5303;53.266;10.410;2023-07-20T11:19:24;101049.31;;;17.83;100.00
10510;BME280;5303;53.266;10.410;2023-07-20T11:21:57;101051.06;;;17.84;100.00
10510;BME280;5303;53.266;10.410;2023-07-20T11:24:23;101046.44;;;17.91;100.00
10510;BME280;5303;53.266;10.410;2023-07-20T11:26:49;101055.72;;;18.07;100.00
10510;BME280;5303;53.266;10.410;2023-07-20T11:29:19;101059.53;;;18.28;100.00
10510;BME280;5303;53.266;10.410;2023-07-20T11:31:45;101070.44;;;18.50;95.77
10510;BME280;5303;53.266;10.410;2023-07-20T11:34:15;101061.06;;;18.65;93.41
10510;BME280;5303;53.266;10.410;2023-07-20T11:36:43;101062.22;;;18.84;82.21
10510;BME280;5303;53.266;10.410;2023-07-20T11:39:09;101066.16;;;19.01;72.69
10510;BME280;5303;53.266;10.410;2023-07-20T11:41:35;101070.03;;;19.17;69.88
10510;BME280;5303;53.266;10.410;2023-07-20T11:44:01;101054.53;;;19.26;68.17
10510;BME280;5303;53.266;10.410;2023-07-20T11:46:28;101054.88;;;19.42;64.87
10510;BME280;5303;53.266;10.410;2023-07-20T11:49:03;101057.69;;;19.38;64.46
10510;BME280;5303;53.266;10.410;2023-07-20T11:51:29;101059.63;;;19.34;63.99
10510;BME280;5303;53.266;10.410;2023-07-20T11:53:55;101059.91;;;19.51;65.40
10510;BME280;5303;53.266;10.410;2023-07-20T11:56:22;101053.53;;;19.55;64.92
10510;BME280;5303;53.266;10.410;2023-07-20T11:58:48;101064.59;;;19.70;67.64
10510;BME280;5303;53.266;10.410;2023-07-20T12:01:13;101051.25;;;19.68;65.14
10510;BME280;5303;53.266;10.410;2023-07-20T12:03:39;101057.56;;;19.91;63.62
10510;BME280;5303;53.266;10.410;2023-07-20T12:06:10;101037.97;;;20.13;62.05
10510;BME280;5303;53.266;10.410;2023-07-20T12:08:40;101067.38;;;20.37;64.57
10510;BME280;5303;53.266;10.410;2023-07-20T12:11:07;101068.09;;;20.19;63.29
10510;BME280;5303;53.266;10.410;2023-07-20T12:13:43;101074.44;;;19.69;61.01
10510;BME280;5303;53.266;10.410;2023-07-20T12:16:18;101069.31;;;19.37;59.11
10510;BME280;5303;53.266;10.410;2023-07-20T12:18:43;101077.03;;;19.21;59.57
10510;BME280;5303;53.266;10.410;2023-07-20T12:21:09;101082.56;;;19.15;61.38
10510;BME280;5303;53.266;10.410;2023-07-20T12:23:37;101078.09;;;19.15;62.45
10510;BME280;5303;53.266;10.410;2023-07-20T12:26:06;101088.91;;;19.12;62.66
10510;BME280;5303;53.266;10.410;2023-07-20T12:28:32;101096.44;;;19.01;63.69
10510;BME280;5303;53.266;10.410;2023-07-20T12:30:57;101091.72;;;19.08;64.37
10510;BME280;5303;53.266;10.410;2023-07-20T12:33:23;101106.97;;;19.32;62.90
10510;BME280;5303;53.266;10.410;2023-07-20T12:35:49;101081.50;;;19.45;63.41
10510;BME280;5303;53.266;10.410;2023-07-20T12:38:15;101078.66;;;19.50;61.41
10510;BME280;5303;53.266;10.410;2023-07-20T12:40:41;101086.00;;;19.70;62.34
10510;BME280;5303;53.266;10.410;2023-07-20T12:43:06;101089.72;;;19.66;60.45
10510;BME280;5303;53.266;10.410;2023-07-20T12:45:33;101088.06;;;19.87;62.21
10510;BME280;5303;53.266;10.410;2023-07-20T12:47:58;101082.66;;;19.88;61.52
10510;BME280;5303;53.266;10.410;2023-07-20T12:50:23;101079.84;;;19.91;61.89